Time;durP1;ratioP1;P1;durP2;ratioP2;P2;SDS_P1;SDS_P2;PMS_P1;PMS_P2;Temp;Humidity;BMP_temperature;BMP_pressure;BME280_temperature;BME280_humidity;BME280_pressure;Samples;Min_cycle;Max_cycle;Signal;HPM_P1;HPM_P2
2023/07/24 00:02:11;;;;;;;15.77;11.90;;;;;;;;;;5044358;28;20530;-85
2023/07/24 00:04:37;;;;;;;23.92;12.35;;;;;;;;;;5043946;28;20029;-85
2023/07/24 00:07:03;;;;;;;19.15;12.95;;;;;;;;;;5040251;28;20079;-85
2023/07/24 00:09:29;;;;;;;22.67;12.85;;;;;;;;;;5039765;28;20029;-87
2023/07/24 00:11:55;;;;;;;20.45;12.20;;;;;;;;;;5040146;28;20474;-85
2023/07/24 00:14:22;;;;;;;23.20;12.48;;;;;;;;;;5041701;28;20030;-87
2023/07/24 00:16:48;;;;;;;19.70;12.00;;;;;;;;;;5039941;28;20068;-87
2023/07/24 00:19:14;;;;;;;20.95;12.57;;;;;;;;;;5037108;28;20546;-88
2023/07/24 00:21:40;;;;;;;22.50;13.40;;;;;;;;;;5033899;28;20043;-87
2023/07/24 00:24:06;;;;;;;19.85;12.00;;;;;;;;;;5040427;28;20021;-88
2023/07/24 00:26:32;;;;;;;22.52;13.13;;;;;;;;;;5045519;28;20386;-86
2023/07/24 00:29:00;;;;;;;19.65;13.50;;;;;;;;;;5044918;28;20049;-87
2023/07/24 00:31:26;;;;;;;20.83;14.85;;;;;;;;;;5045961;28;20108;-86
2023/07/24 00:33:52;;;;;;;24.30;15.25;;;;;;;;;;5041062;28;20029;-88
2023/07/24 00:36:19;;;;;;;21.45;14.73;;;;;;;;;;5038307;28;20159;-87
2023/07/24 00:38:45;;;;;;;22.13;15.48;;;;;;;;;;5039817;28;20025;-85
2023/07/24 00:41:11;;;;;;;24.33;13.77;;;;;;;;;;5046849;28;20544;-87
2023/07/24 00:43:37;;;;;;;21.30;14.07;;;;;;;;;;5042671;28;20025;-87
2023/07/24 00:46:04;;;;;;;22.90;15.45;;;;;;;;;;5041203;28;20025;-88
2023/07/24 00:48:30;;;;;;;24.70;13.75;;;;;;;;;;5047765;28;20170;-87
2023/07/24 00:50:56;;;;;;;23.40;14.68;;;;;;;;;;5042531;28;20060;-89
2023/07/24 00:53:23;;;;;;;20.58;14.13;;;;;;;;;;5040437;28;20071;-86
2023/07/24 00:55:49;;;;;;;19.83;14.50;;;;;;;;;;5047331;28;20112;-87
2023/07/24 00:58:18;;;;;;;19.27;13.88;;;;;;;;;;5046284;28;20469;-87
2023/07/24 01:00:44;;;;;;;20.35;13.85;;;;;;;;;;5038740;28;20034;-86
2023/07/24 01:03:12;;;;;;;23.85;14.35;;;;;;;;;;5047924;28;20029;-85
2023/07/24 01:05:38;;;;;;;39.03;13.68;;;;;;;;;;5040427;28;20084;-89
2023/07/24 01:08:05;;;;;;;26.20;14.00;;;;;;;;;;5042734;28;20475;-86
2023/07/24 01:10:31;;;;;;;18.92;13.35;;;;;;;;;;5032343;28;20053;-87
2023/07/24 01:13:08;;;;;;;21.30;14.65;;;;;;;;;;5044871;28;20036;-87
2023/07/24 01:15:48;;;;;;;23.05;14.35;;;;;;;;;;5042230;28;20021;-87
2023/07/24 01:18:15;;;;;;;20.25;14.30;;;;;;;;;;5041809;28;20086;-87
2023/07/24 01:20:44;;;;;;;22.23;13.90;;;;;;;;;;5045877;28;20372;-88
2023/07/24 01:23:15;;;;;;;18.77;13.68;;;;;;;;;;5043934;28;20033;-89
2023/07/24 01:25:53;;;;;;;21.00;13.63;;;;;;;;;;5050084;28;20029;-87
2023/07/24 01:28:19;;;;;;;25.40;14.40;;;;;;;;;;5040205;28;20025;-88
2023/07/24 01:30:46;;;;;;;21.95;14.35;;;;;;;;;;5044104;28;20033;-88
2023/07/24 01:33:12;;;;;;;19.98;13.52;;;;;;;;;;5037740;28;20067;-88
2023/07/24 01:35:39;;;;;;;20.80;12.77;;;;;;;;;;5050479;28;20491;-87
2023/07/24 01:38:05;;;;;;;18.90;13.65;;;;;;;;;;5054981;28;20033;-87
2023/07/24 01:40:32;;;;;;;20.77;13.90;;;;;;;;;;5047055;28;20112;-85
2023/07/24 01:42:59;;;;;;;23.85;13.70;;;;;;;;;;5055548;28;20028;-88
2023/07/24 01:45:25;;;;;;;20.33;13.48;;;;;;;;;;5054991;28;20040;-86
2023/07/24 01:47:51;;;;;;;20.58;13.98;;;;;;;;;;5047916;28;20429;-87
2023/07/24 01:50:17;;;;;;;22.95;13.88;;;;;;;;;;5047435;28;20099;-86
2023/07/24 01:52:45;;;;;;;22.05;13.98;;;;;;;;;;5052603;28;20387;-86
2023/07/24 01:55:11;;;;;;;22.70;14.45;;;;;;;;;;5048096;28;20021;-87
2023/07/24 01:57:37;;;;;;;20.77;13.98;;;;;;;;;;5049169;28;20022;-86
2023/07/24 02:00:03;;;;;;;20.02;12.93;;;;;;;;;;5039662;28;20029;-87
2023/07/24 02:02:29;;;;;;;19.65;13.88;;;;;;;;;;5039397;28;20375;-86
2023/07/24 02:04:55;;;;;;;19.92;14.13;;;;;;;;;;5045629;28;20025;-86
2023/07/24 02:07:21;;;;;;;24.95;14.05;;;;;;;;;;5055089;28;20021;-85
2023/07/24 02:09:48;;;;;;;18.70;13.27;;;;;;;;;;5054358;28;20021;-84
2023/07/24 02:12:14;;;;;;;19.25;14.13;;;;;;;;;;5050829;28;20021;-85
2023/07/24 02:14:40;;;;;;;25.65;13.27;;;;;;;;;;5043193;28;20053;-85
2023/07/24 02:17:06;;;;;;;22.17;14.38;;;;;;;;;;5042298;28;20024;-86
2023/07/24 02:19:32;;;;;;;21.35;14.48;;;;;;;;;;5047139;28;20025;-87
2023/07/24 02:21:58;;;;;;;20.80;14.27;;;;;;;;;;5041291;28;20025;-84
2023/07/24 02:24:25;;;;;;;19.67;13.63;;;;;;;;;;5043769;28;20025;-86
2023/07/24 02:26:51;;;;;;;17.63;13.45;;;;;;;;;;5042683;28;20028;-85
2023/07/24 02:29:18;;;;;;;18.58;13.70;;;;;;;;;;5046514;28;20360;-84
2023/07/24 02:31:44;;;;;;;18.17;13.10;;;;;;;;;;5049364;28;20029;-85
2023/07/24 02:34:11;;;;;;;21.20;13.60;;;;;;;;;;5042298;28;20037;-86
2023/07/24 02:36:37;;;;;;;20.02;13.70;;;;;;;;;;5052307;28;20034;-86
2023/07/24 02:39:03;;;;;;;21.48;14.82;;;;;;;;;;5042070;28;20079;-87
2023/07/24 02:41:30;;;;;;;20.60;14.10;;;;;;;;;;5048326;28;20034;-87
2023/07/24 02:43:56;;;;;;;18.70;14.05;;;;;;;;;;5041485;28;20379;-86
2023/07/24 02:46:24;;;;;;;22.23;14.13;;;;;;;;;;5044796;28;20021;-87
2023/07/24 02:48:50;;;;;;;18.73;13.45;;;;;;;;;;5048924;28;20025;-86
2023/07/24 02:51:16;;;;;;;22.02;13.40;;;;;;;;;;5050660;28;20045;-87
2023/07/24 02:53:42;;;;;;;22.48;13.27;;;;;;;;;;5040210;28;20071;-86
2023/07/24 02:56:08;;;;;;;19.75;13.73;;;;;;;;;;5052392;28;20026;-86
2023/07/24 02:58:34;;;;;;;21.73;14.38;;;;;;;;;;5039579;28;20029;-88
2023/07/24 03:01:07;;;;;;;18.52;12.95;;;;;;;;;;5051648;28;20112;-87
2023/07/24 03:03:34;;;;;;;19.40;14.40;;;;;;;;;;5050457;28;20490;-86
2023/07/24 03:06:00;;;;;;;23.50;14.45;;;;;;;;;;5039967;28;20476;-86
2023/07/24 03:08:26;;;;;;;24.25;13.20;;;;;;;;;;5048522;28;20017;-86
2023/07/24 03:10:52;;;;;;;23.73;13.45;;;;;;;;;;5043042;28;20398;-87
2023/07/24 03:13:18;;;;;;;24.52;14.02;;;;;;;;;;5046838;28;20118;-85
2023/07/24 03:15:51;;;;;;;20.73;13.23;;;;;;;;;;5047234;28;20026;-86
2023/07/24 03:18:17;;;;;;;24.02;14.38;;;;;;;;;;5044671;28;20037;-86
2023/07/24 03:20:43;;;;;;;20.30;13.30;;;;;;;;;;5040272;28;20061;-86
2023/07/24 03:23:09;;;;;;;18.98;13.30;;;;;;;;;;5043797;28;20029;-87
2023/07/24 03:25:36;;;;;;;21.02;13.75;;;;;;;;;;5048518;28;20029;-86
2023/07/24 03:28:02;;;;;;;26.27;15.00;;;;;;;;;;5046475;28;20525;-85
2023/07/24 03:30:28;;;;;;;24.77;14.55;;;;;;;;;;5045887;28;20041;-87
2023/07/24 03:32:54;;;;;;;20.08;13.60;;;;;;;;;;5045730;28;20021;-86
2023/07/24 03:35:20;;;;;;;22.25;14.82;;;;;;;;;;5045452;28;20017;-86
2023/07/24 03:37:46;;;;;;;24.17;15.57;;;;;;;;;;5034241;28;20034;-85
2023/07/24 03:40:13;;;;;;;32.20;17.75;;;;;;;;;;5040419;28;20036;-87
2023/07/24 03:47:19;;;;;;;37.60;19.48;;;;;;;;;;5164770;27;20814;-90
2023/07/24 03:49:45;;;;;;;31.55;18.85;;;21.00;99.90;;;;;;5130897;27;20027;-87
2023/07/24 03:52:11;;;;;;;30.90;17.38;;;21.00;99.90;;;;;;5133338;27;20484;-86
2023/07/24 03:54:37;;;;;;;24.73;16.00;;;;;;;;;;5132645;27;20035;-88
2023/07/24 03:57:03;;;;;;;23.27;14.90;;;;;;;;;;5130626;27;20032;-88
2023/07/24 03:59:29;;;;;;;24.13;15.15;;;;;;;;;;5130379;27;20114;-87
2023/07/24 04:01:55;;;;;;;23.98;14.45;;;;;;;;;;5130055;27;20419;-86
2023/07/24 04:04:21;;;;;;;20.33;13.35;;;;;;;;;;5136637;27;20024;-87
2023/07/24 04:06:47;;;;;;;19.15;13.98;;;;;;;;;;5130359;27;20047;-86
2023/07/24 04:09:16;;;;;;;19.73;14.30;;;;;;;;;;5130319;27;20024;-86
2023/07/24 04:11:45;;;;;;;22.88;14.88;;;;;;;;;;5130350;27;20020;-87
2023/07/24 04:14:11;;;;;;;28.17;14.98;;;;;;;;;;5129998;27;20491;-86
2023/07/24 04:16:38;;;;;;;22.23;14.02;;;;;;;;;;5130098;27;20027;-86
2023/07/24 04:19:04;;;;;;;21.98;14.07;;;;;;;;;;5129463;27;20031;-85
2023/07/24 04:21:30;;;;;;;24.08;14.90;;;;;;;;;;5130011;27;20027;-89
2023/07/24 04:23:56;;;;;;;20.90;13.57;;;;;;;;;;5130257;27;20026;-86
2023/07/24 04:26:22;;;;;;;22.27;14.40;;;;;;;;;;5135908;27;20035;-87
2023/07/24 04:28:48;;;;;;;27.35;16.08;;;;;;;;;;5130077;28;20027;-85
2023/07/24 04:31:14;;;;;;;29.08;15.55;;;;;;;;;;5129579;27;20027;-86
2023/07/24 04:33:40;;;;;;;26.75;15.38;;;;;;;;;;5129701;27;20024;-84
2023/07/24 04:36:07;;;;;;;26.27;15.80;;;;;;;;;;5128880;27;20031;-85
2023/07/24 04:38:33;;;;;;;24.88;16.10;;;;;;;;;;5134065;27;20020;-85
2023/07/24 04:41:02;;;;;;;24.80;16.30;;;;;;;;;;5129505;27;20545;-85
2023/07/24 04:43:28;;;;;;;24.63;16.15;;;;;;;;;;5129413;27;20030;-84
2023/07/24 04:45:54;;;;;;;25.30;16.15;;;;;;;;;;5128348;27;20043;-85
2023/07/24 04:48:20;;;;;;;32.72;16.38;;;;;;;;;;5129487;27;20574;-85
2023/07/24 04:50:46;;;;;;;25.65;15.52;;;;;;;;;;5128688;27;20374;-84
2023/07/24 04:53:12;;;;;;;25.40;14.52;;;;;;;;;;5129020;27;20034;-84
2023/07/24 04:55:38;;;;;;;24.63;15.20;;;;;;;;;;5135038;27;20019;-84
2023/07/24 04:58:05;;;;;;;22.50;14.10;;;;;;;;;;5118201;27;20374;-84
2023/07/24 05:00:31;;;;;;;25.58;14.35;;;;;;;;;;5114816;28;20023;-84
2023/07/24 05:02:57;;;;;;;27.65;14.60;;;;;;;;;;5126018;27;20047;-84
2023/07/24 05:05:23;;;;;;;24.73;13.80;;;;;;;;;;5131917;27;20028;-85
2023/07/24 05:07:49;;;;;;;23.45;12.52;;;;;;;;;;5135836;27;20037;-84
2023/07/24 05:10:15;;;;;;;19.83;12.52;;;;;;;;;;5136334;27;20377;-83
2023/07/24 05:12:42;;;;;;;19.85;12.85;;;;;;;;;;5136155;27;20027;-84
2023/07/24 05:15:08;;;;;;;21.73;12.35;;;;;;;;;;5135842;27;20023;-84
2023/07/24 05:17:34;;;;;;;20.85;12.45;;;;;;;;;;5126841;27;20035;-84
2023/07/24 05:20:01;;;;;;;21.90;11.77;;;;;;;;;;5127793;27;20144;-84
2023/07/24 05:22:27;;;;;;;20.50;12.77;;;;;;;;;;5135699;27;20023;-84
2023/07/24 05:24:53;;;;;;;20.35;12.10;;;;;;;;;;5136846;27;20019;-84
2023/07/24 05:27:19;;;;;;;18.00;12.57;;;;;;;;;;5135257;27;20164;-84
2023/07/24 05:29:45;;;;;;;18.33;11.20;;;;;;;;;;5136171;27;20023;-83
2023/07/24 05:32:11;;;;;;;19.90;12.45;;;;;;;;;;5135856;27;20042;-84
2023/07/24 05:34:37;;;;;;;18.23;11.55;;;;;;;;;;5135447;27;20027;-83
2023/07/24 05:37:04;;;;;;;27.42;12.85;;;;;;;;;;5135709;27;20425;-84
2023/07/24 05:39:30;;;;;;;22.00;12.38;;;;;;;;;;5135367;27;20024;-83
2023/07/24 05:41:56;;;;;;;22.45;12.18;;;;;;;;;;5135609;27;20369;-83
2023/07/24 05:44:22;;;;;;;22.48;11.07;;;;;;;;;;5135603;27;20476;-83
2023/07/24 05:46:49;;;;;;;23.52;10.73;;;;;;;;;;5135078;27;20051;-83
2023/07/24 05:49:15;;;;;;;21.20;11.27;;;;;;;;;;5135318;27;20027;-83
2023/07/24 05:51:41;;;;;;;19.63;11.23;;;;;;;;;;5135463;27;20020;-82
2023/07/24 05:54:07;;;;;;;19.20;11.60;;;;;;;;;;5125890;27;20029;-83
2023/07/24 05:56:33;;;;;;;19.83;10.77;;;;;;;;;;5127562;27;20397;-82
2023/07/24 05:58:59;;;;;;;24.25;11.65;;;;;;;;;;5135264;27;20039;-82
2023/07/24 06:01:25;;;;;;;21.90;10.68;;;;;;;;;;5135155;27;20023;-83
2023/07/24 06:03:51;;;;;;;18.55;11.00;;;;;;;;;;5132093;27;20072;-83
2023/07/24 06:06:19;;;;;;;21.90;10.70;;;;;;;;;;5115979;28;20024;-83
2023/07/24 06:08:47;;;;;;;22.27;10.80;;;;;;;;;;5135402;27;20035;-83
2023/07/24 06:11:13;;;;;;;18.48;10.38;;;;;;;;;;5117084;27;20028;-83
2023/07/24 06:13:39;;;;;;;23.02;10.05;;;;;;;;;;5115789;28;20019;-82
2023/07/24 06:16:07;;;;;;;24.45;10.18;;;;;;;;;;5115418;28;20443;-83
2023/07/24 06:18:33;;;;;;;17.67;10.80;;;;;;;;;;5114385;28;20072;-83
2023/07/24 06:20:59;;;;;;;20.33;9.70;;;;;;;;;;5115312;28;20023;-82
2023/07/24 06:23:25;;;;;;;22.23;9.30;;;;;;;;;;5113953;28;20378;-83
2023/07/24 06:25:52;;;;;;;16.23;9.35;;;;;;;;;;5115093;28;20020;-83
2023/07/24 06:28:19;;;;;;;23.20;10.13;;;;;;;;;;5115481;28;20019;-83
2023/07/24 06:30:45;;;;;;;21.27;10.05;;;;;;;;;;5114610;28;20023;-83
2023/07/24 06:33:11;;;;;;;19.83;8.68;;;;;;;;;;5114029;28;20020;-83
2023/07/24 06:35:37;;;;;;;18.35;9.80;;;;;;;;;;5112326;28;20030;-83
2023/07/24 06:38:03;;;;;;;16.02;10.02;;;;;;;;;;5109987;27;20063;-83
2023/07/24 09:44:20;;;;;;;16.13;9.40;;;;;;;;;;5111482;27;20316;-81
2023/07/24 09:46:46;;;;;;;19.95;9.20;;;;;;;;;;5111516;28;20024;-80
2023/07/24 09:49:13;;;;;;;18.00;10.10;;;;;;;;;;5111683;28;20073;-79
2023/07/24 09:51:39;;;;;;;19.90;9.55;;;;;;;;;;5111584;28;20095;-80
2023/07/24 09:54:08;;;;;;;18.73;10.32;;;;;;;;;;5092546;28;20020;-81
2023/07/24 09:56:35;;;;;;;19.48;9.85;;;;;;;;;;5091822;28;20023;-81
2023/07/24 09:59:02;;;;;;;20.70;9.82;;;;;;;;;;5111473;28;20015;-79
2023/07/24 10:01:29;;;;;;;15.93;9.57;;;;;;;;;;5111477;28;20019;-79
2023/07/24 10:03:56;;;;;;;20.55;9.80;;;;;;;;;;5078561;28;20020;-79
2023/07/24 10:06:22;;;;;;;17.70;9.75;;;;;;;;;;5093180;28;20466;-79
2023/07/24 10:08:48;;;;;;;16.30;9.43;;;;;;;;;;5111082;28;20099;-80
2023/07/24 10:11:15;;;;;;;15.57;8.98;;;;;;;;;;5109981;28;20049;-81
2023/07/24 10:13:42;;;;;;;16.15;9.35;;;;;;;;;;5092483;28;20026;-81
2023/07/24 10:16:08;;;;;;;18.90;9.13;;;;;;;;;;5092187;28;20031;-80
2023/07/24 10:18:35;;;;;;;18.85;10.55;;;;;;;;;;5092631;28;20031;-81
2023/07/24 10:21:02;;;;;;;15.65;9.48;;;;;;;;;;5092636;28;20024;-81
2023/07/24 10:23:29;;;;;;;16.95;10.13;;;;;;;;;;5110673;28;20023;-78
2023/07/24 10:25:55;;;;;;;17.85;9.68;;;;;;;;;;5072461;28;20458;-79
2023/07/24 10:28:30;;;;;;;16.55;9.90;;;;;;;;;;5107305;28;20028;-79
2023/07/24 10:30:57;;;;;;;24.55;9.85;;;;;;;;;;5110881;28;20020;-80
2023/07/24 10:33:23;;;;;;;19.08;9.50;;;;;;;;;;5092587;28;20403;-79
2023/07/24 10:35:54;;;;;;;16.27;9.65;;;;;;;;;;5110494;28;20438;-80
2023/07/24 10:38:20;;;;;;;;;;;;;;;;;;5104242;28;20024;-81
2023/07/24 10:40:48;;;;;;;18.45;9.73;;;;;;;;;;5072172;28;19907;-80
2023/07/24 10:43:18;;;;;;;19.23;9.70;;;;;;;;;;5072382;28;20076;-79
2023/07/24 10:45:51;;;;;;;19.98;9.88;;;;;;;;;;5092413;28;20019;-79
2023/07/24 10:48:18;;;;;;;17.55;9.25;;;;;;;;;;5110433;28;20015;-80
2023/07/24 10:50:45;;;;;;;17.67;10.18;;;;;;;;;;5109530;28;20026;-79
2023/07/24 10:53:12;;;;;;;16.80;9.05;;;;;;;;;;5110444;28;20024;-81
2023/07/24 10:55:38;;;;;;;20.13;10.00;;;;;;;;;;5078847;28;20362;-81
2023/07/24 10:58:04;;;;;;;17.42;9.32;;;;;;;;;;5096011;28;20354;-80
2023/07/24 11:00:31;;;;;;;13.85;8.75;;;;;;;;;;5078759;28;20027;-79
2023/07/24 11:02:57;;;;;;;25.13;9.88;;;;;;;;;;5078520;28;20047;-80
2023/07/24 11:05:23;;;;;;;21.10;9.50;;;;;;;;;;5096416;28;20099;-80
2023/07/24 11:07:50;;;;;;;17.52;9.82;;;;;;;;;;5096371;28;20024;-79
2023/07/24 11:10:19;;;;;;;16.17;10.07;;;;;;;;;;5096275;28;20023;-80
2023/07/24 11:12:46;;;;;;;19.02;9.57;;;;;;;;;;5081279;28;20028;-80
2023/07/24 11:15:13;;;;;;;16.92;9.27;;;;;;;;;;5086548;28;20024;-80
2023/07/24 11:17:40;;;;;;;16.83;9.27;;;;;;;;;;5078084;28;20062;-80
2023/07/24 11:20:16;;;;;;;16.92;9.48;;;;;;;;;;5096268;28;20386;-78
2023/07/24 11:22:44;;;;;;;23.13;10.27;;;;;;;;;;5096290;28;20022;-79
2023/07/24 11:25:11;;;;;;;16.05;9.00;;;;;;;;;;5077601;28;20034;-79
2023/07/24 11:27:44;;;;;;;18.75;9.77;;;;;;;;;;5078106;28;20107;-78
2023/07/24 11:30:13;;;;;;;15.43;8.77;;;;;;;;;;5078200;28;20429;-80
2023/07/24 11:32:40;;;;;;;15.27;9.15;;;;;;;;;;5079539;28;20490;-80
2023/07/24 11:35:07;;;;;;;16.65;8.90;;;;;;;;;;5070764;28;20445;-80
2023/07/24 11:37:34;;;;;;;19.27;9.52;;;;;;;;;;5096175;28;20458;-80
2023/07/24 11:40:09;;;;;;;16.33;8.95;;;;;;;;;;5077354;28;20024;-79
2023/07/24 11:42:45;;;;;;;17.60;8.63;;;;;;;;;;5095827;28;20043;-79
2023/07/24 11:45:11;;;;;;;17.02;9.27;;;;;;;;;;5095415;28;20020;-79
2023/07/24 11:47:44;;;;;;;16.58;9.02;;;;;;;;;;5095793;28;20013;-78
2023/07/24 11:50:11;;;;;;;14.75;8.38;;;;;;;;;;5095418;28;20024;-80
2023/07/24 11:52:40;;;;;;;18.05;8.93;;;;;;;;;;5095346;28;20020;-80
2023/07/24 11:55:07;;;;;;;14.80;8.32;;;;;;;;;;5095549;28;20117;-79
2023/07/24 11:57:33;;;;;;;17.58;9.20;;;;;;;;;;5095169;28;20404;-80
2023/07/24 11:59:59;;;;;;;15.52;8.80;;;;;;;;;;5095424;28;20024;-79
2023/07/24 12:02:29;;;;;;;18.77;8.57;;;;;;;;;;5077474;28;20039;-78
2023/07/24 12:04:58;;;;;;;14.15;7.97;;;;;;;;;;5077285;28;20477;-78
2023/07/24 12:07:29;;;;;;;17.17;8.68;;;;;;;;;;5076170;28;20012;-81
2023/07/24 12:09:55;;;;;;;15.40;8.93;;;;;;;;;;5095723;28;20016;-77
2023/07/24 12:12:22;;;;;;;16.05;8.30;;;;;;;;;;5080977;28;20021;-80
2023/07/24 12:14:48;;;;;;;16.95;8.57;;;;;;;;;;5091625;28;20136;-78
2023/07/24 12:17:19;;;;;;;16.00;7.70;;;;;;;;;;5095307;28;20331;-78
2023/07/24 12:19:45;;;;;;;16.02;8.43;;;;;;;;;;5094994;28;20023;-80
2023/07/24 12:22:12;;;;;;;15.73;8.63;;;;;;;;;;5094624;28;20455;-80
2023/07/24 12:24:38;;;;;;;16.73;7.63;;;;;;;;;;5065276;28;20124;-80
2023/07/24 12:27:04;;;;;;;13.77;7.63;;;;;;;;;;5055831;28;20023;-80
2023/07/24 12:29:30;;;;;;;15.05;8.50;;;;;;;;;;5056244;28;20451;-80
2023/07/24 12:31:56;;;;;;;15.50;8.35;;;;;;;;;;5061281;28;20450;-80
2023/07/24 12:34:22;;;;;;;12.73;7.70;;;;;;;;;;5073702;28;20028;-78
2023/07/24 12:36:48;;;;;;;13.63;8.10;;;;;;;;;;5087056;28;20020;-80
2023/07/24 12:39:14;;;;;;;13.77;7.70;;;;;;;;;;5094514;28;20082;-78
2023/07/24 12:41:41;;;;;;;14.52;7.97;;;;;;;;;;5075837;28;20373;-79
2023/07/24 12:44:07;;;;;;;13.65;8.23;;;;;;;;;;5079077;28;20051;-79
2023/07/24 12:46:33;;;;;;;15.35;8.40;;;;;;;;;;5075186;28;20070;-79
2023/07/24 12:48:59;;;;;;;21.52;8.48;;;;;;;;;;5075409;28;20064;-79
2023/07/24 12:51:25;;;;;;;13.75;8.63;;;;;;;;;;5075916;28;20046;-78
2023/07/24 12:53:51;;;;;;;21.73;8.48;;;;;;;;;;5093839;28;20459;-79
2023/07/24 12:56:17;;;;;;;13.43;7.53;;;;;;;;;;5093781;28;20454;-79
2023/07/24 12:58:44;;;;;;;15.35;8.25;;;;;;;;;;5093889;28;20462;-80
2023/07/24 13:01:10;;;;;;;16.40;8.13;;;;;;;;;;5093983;28;20157;-80
2023/07/24 13:03:36;;;;;;;13.35;7.85;;;;;;;;;;5093389;28;20055;-80
2023/07/24 13:06:02;;;;;;;15.30;8.90;;;;;;;;;;5093524;28;20031;-81
2023/07/24 13:08:28;;;;;;;15.52;8.40;;;;;;;;;;5094015;28;20016;-80
2023/07/24 13:10:54;;;;;;;13.93;7.32;;;;;;;;;;5074919;28;20458;-80
2023/07/24 13:13:20;;;;;;;15.43;8.00;;;;;;;;;;5075724;28;20110;-80
2023/07/24 13:15:47;;;;;;;14.23;8.13;;;;;;;;;;5075270;28;20020;-80
2023/07/24 13:18:13;;;;;;;15.02;7.65;;;;;;;;;;5074776;28;20016;-81
2023/07/24 13:20:40;;;;;;;14.65;8.25;;;;;;;;;;5079289;28;20016;-80
2023/07/24 13:23:07;;;;;;;12.80;7.57;;;;;;;;;;5075147;28;20028;-80
2023/07/24 13:25:33;;;;;;;13.40;8.23;;;;;;;;;;5093554;28;20469;-80
2023/07/24 13:27:59;;;;;;;16.17;7.90;;;;;;;;;;5092905;28;20085;-80
2023/07/24 13:30:25;;;;;;;14.95;8.35;;;;;;;;;;5075015;28;20533;-81
2023/07/24 13:32:51;;;;;;;14.23;8.15;;;;;;;;;;5061228;28;20493;-81
2023/07/24 13:35:17;;;;;;;14.20;8.10;;;;;;;;;;5083703;28;20020;-80
2023/07/24 13:37:43;;;;;;;12.18;8.05;;;;;;;;;;5093002;28;20022;-80
2023/07/24 13:40:10;;;;;;;16.65;8.57;;;;;;;;;;5093131;28;20024;-82
2023/07/24 13:42:36;;;;;;;18.30;8.05;;;;;;;;;;5093202;28;20048;-81
2023/07/24 13:45:02;;;;;;;12.40;8.20;;;;;;;;;;5092901;28;20027;-80
2023/07/24 13:47:28;;;;;;;14.00;8.10;;;;;;;;;;5074988;28;20024;-80
2023/07/24 13:49:55;;;;;;;15.65;7.95;;;;;;;;;;5093305;28;20114;-80
2023/07/24 13:52:21;;;;;;;16.25;7.80;;;;;;;;;;5092820;28;20031;-80
2023/07/24 13:54:47;;;;;;;12.93;7.85;;;;;;;;;;5074823;28;20418;-79
2023/07/24 13:57:13;;;;;;;15.05;8.30;;;;;;;;;;5074986;28;20039;-80
2023/07/24 13:59:40;;;;;;;14.48;7.82;;;;;;;;;;5074739;28;20031;-79
2023/07/24 14:02:06;;;;;;;13.50;7.78;;;;;;;;;;5074716;28;20020;-80
2023/07/24 14:04:33;;;;;;;14.30;7.93;;;;;;;;;;5093124;28;20027;-80
2023/07/24 14:06:59;;;;;;;13.77;7.97;;;;;;;;;;5092228;28;20019;-80
2023/07/24 14:09:25;;;;;;;15.02;7.45;;;;;;;;;;5093395;28;20016;-81
2023/07/24 14:11:51;;;;;;;14.75;8.07;;;;;;;;;;5092822;28;20012;-80
2023/07/24 14:14:19;;;;;;;15.60;8.27;;;;;;;;;;5074263;28;20028;-79
2023/07/24 14:16:45;;;;;;;14.15;8.30;;;;;;;;;;5092838;28;20012;-80
2023/07/24 14:19:11;;;;;;;16.13;8.45;;;;;;;;;;5090709;28;20028;-80
2023/07/24 14:21:37;;;;;;;14.85;7.63;;;;;;;;;;5072512;28;20024;-80
2023/07/24 14:24:03;;;;;;;12.45;7.68;;;;;;;;;;5052099;28;20025;-80
2023/07/24 14:26:29;;;;;;;14.65;7.57;;;;;;;;;;5086445;28;20476;-80
2023/07/24 14:28:56;;;;;;;14.18;7.53;;;;;;;;;;5092817;28;20039;-80
2023/07/24 14:31:22;;;;;;;14.18;7.93;;;;;;;;;;5096700;28;20012;-80
2023/07/24 14:33:48;;;;;;;12.88;7.63;;;;;;;;;;5096082;28;20028;-81
2023/07/24 14:36:14;;;;;;;13.45;7.88;;;;;;;;;;5096218;28;20445;-80
2023/07/24 14:38:40;;;;;;;14.77;7.35;;;;;;;;;;5094850;28;20024;-80
2023/07/24 14:41:06;;;;;;;14.27;8.13;;;;;;;;;;5075719;28;20025;-79
2023/07/24 14:43:32;;;;;;;11.80;7.82;;;;;;;;;;5076948;28;20044;-80
2023/07/24 14:45:59;;;;;;;17.85;7.65;;;;;;;;;;5095847;28;20024;-80
2023/07/24 14:48:26;;;;;;;13.27;8.18;;;;;;;;;;5077652;28;20020;-80
2023/07/24 14:50:52;;;;;;;17.30;8.02;;;;;;;;;;5096102;28;20055;-80
2023/07/24 14:53:18;;;;;;;14.00;7.95;;;;;;;;;;5096264;28;20026;-80
2023/07/24 14:55:45;;;;;;;13.23;7.55;;;;;;;;;;5096098;28;20024;-80
2023/07/24 14:58:11;;;;;;;13.20;7.80;;;;;;;;;;5096065;28;20027;-81
2023/07/24 15:00:38;;;;;;;15.27;7.70;;;;;;;;;;5096210;28;20073;-82
2023/07/24 15:03:04;;;;;;;13.73;8.13;;;;;;;;;;5077258;28;20024;-79
2023/07/24 15:05:30;;;;;;;14.20;8.25;;;;;;;;;;5096051;28;20549;-81
2023/07/24 15:07:56;;;;;;;12.90;7.82;;;;;;;;;;5095793;28;20030;-81
2023/07/24 15:10:22;;;;;;;19.00;8.15;;;;;;;;;;5077247;28;20020;-81
2023/07/24 15:12:48;;;;;;;12.15;7.80;;;;;;;;;;5095650;28;20035;-81
2023/07/24 15:15:15;;;;;;;18.65;8.95;;;;;;;;;;5095593;28;20030;-81
2023/07/24 15:17:41;;;;;;;13.25;7.90;;;;;;;;;;5095737;28;20020;-80
2023/07/24 15:20:08;;;;;;;15.35;8.15;;;;;;;;;;5067481;28;20017;-81
2023/07/24 15:22:34;;;;;;;15.80;8.95;;;;;;;;;;5057112;28;20035;-82
2023/07/24 15:25:02;;;;;;;19.70;8.73;;;;;;;;;;5081910;28;20017;-80
2023/07/24 15:27:28;;;;;;;13.48;7.95;;;;;;;;;;5075415;28;20013;-80
2023/07/24 15:32:19;;;;;;;15.57;8.23;;;;;;;;;;5105114;27;20331;-80
2023/07/24 15:34:45;;;;;;;18.90;8.48;;;;;;;;;;5088446;28;20032;-81
2023/07/24 15:37:12;;;;;;;14.45;8.00;;;;;;;;;;5068628;28;20031;-82
2023/07/24 15:39:38;;;;;;;17.52;8.27;;;;;;;;;;5088912;28;20051;-81
2023/07/24 15:42:04;;;;;;;15.25;8.73;;;;;;;;;;5089011;28;20109;-81
2023/07/24 15:44:30;;;;;;;15.18;8.43;;;;;;;;;;5086339;28;20103;-81
2023/07/24 15:46:56;;;;;;;14.98;8.38;;;;;;;;;;5088929;28;20379;-82
2023/07/24 15:49:22;;;;;;;13.00;8.23;;;;;;;;;;5090071;28;20373;-80
2023/07/24 15:51:49;;;;;;;15.48;8.27;;;;;;;;;;5087114;28;20032;-81
2023/07/24 15:54:15;;;;;;;20.98;9.13;;;;;;;;;;5087997;28;20032;-80
2023/07/24 15:56:41;;;;;;;15.93;8.10;;;;;;;;;;5087773;28;20032;-81
2023/07/24 15:59:09;;;;;;;13.80;8.32;;;;;;;;;;5070296;28;20566;-82
2023/07/24 16:01:35;;;;;;;14.93;8.38;;;;;;;;;;5070696;28;20106;-82
2023/07/24 16:04:01;;;;;;;16.63;8.30;;;;;;;;;;5070541;28;20028;-81
2023/07/24 16:06:28;;;;;;;17.52;8.82;;;;;;;;;;5087260;28;20036;-80
2023/07/24 16:08:54;;;;;;;22.92;8.85;;;;;;;;;;5087363;28;20029;-80
2023/07/24 16:11:20;;;;;;;15.13;8.55;;;;;;;;;;5087153;28;20119;-80
2023/07/24 16:13:47;;;;;;;15.57;8.13;;;;;;;;;;5087608;28;20483;-81
2023/07/24 16:16:13;;;;;;;16.63;9.10;;;;;;;;;;5070330;28;20059;-79
2023/07/24 16:18:39;;;;;;;16.55;8.30;;;;;;;;;;5087074;28;20872;-82
2023/07/24 16:21:05;;;;;;;13.25;8.15;;;;;;;;;;5084282;28;20491;-79
2023/07/24 16:23:31;;;;;;;20.38;9.10;;;;;;;;;;5084018;28;20398;-80
2023/07/24 16:25:57;;;;;;;18.85;8.40;;;;;;;;;;5089095;28;20027;-82
2023/07/24 16:28:24;;;;;;;18.45;9.55;;;;;;;;;;5088419;28;20374;-79
2023/07/24 16:30:52;;;;;;;18.77;8.80;;;;;;;;;;5094681;28;20491;-81
2023/07/24 16:33:18;;;;;;;16.58;8.88;;;;;;;;;;5070885;28;20047;-79
2023/07/24 16:35:44;;;;;;;17.35;9.18;;;;;;;;;;5071252;28;20028;-83
2023/07/24 16:38:14;;;;;;;15.52;8.60;;;;;;;;;;5106816;28;20024;-81
2023/07/24 16:40:40;;;;;;;16.25;9.55;;;;;;;;;;5076136;28;20131;-81
2023/07/24 16:43:06;;;;;;;16.73;8.98;;;;;;;;;;5072490;28;20056;-82
2023/07/24 16:45:32;;;;;;;14.95;8.23;;;;;;;;;;5077923;28;20028;-82
2023/07/24 16:47:58;;;;;;;19.77;9.45;;;;;;;;;;5077321;28;20070;-81
2023/07/24 16:50:24;;;;;;;19.73;8.65;;;;;;;;;;5077860;28;20024;-83
2023/07/24 16:52:50;;;;;;;15.30;9.00;;;;;;;;;;5095698;28;20031;-82
2023/07/24 16:55:16;;;;;;;17.23;9.05;;;;;;;;;;5077452;28;20074;-83
2023/07/24 16:57:44;;;;;;;15.50;9.23;;;;;;;;;;5077641;28;20025;-81
2023/07/24 17:00:10;;;;;;;19.63;9.10;;;;;;;;;;5095208;28;20105;-82
2023/07/24 17:02:37;;;;;;;16.48;9.30;;;;;;;;;;5074080;28;20084;-83
2023/07/24 17:05:03;;;;;;;17.35;9.50;;;;;;;;;;5063478;28;20052;-81
2023/07/24 17:07:29;;;;;;;18.92;9.18;;;;;;;;;;5067129;28;20115;-81
2023/07/24 17:09:55;;;;;;;22.83;9.05;;;;;;;;;;5089027;28;20020;-82
2023/07/24 17:12:22;;;;;;;18.17;9.13;;;;;;;;;;5075036;28;20421;-83
2023/07/24 17:14:48;;;;;;;20.08;9.93;;;;;;;;;;5074950;28;20029;-83
2023/07/24 17:17:14;;;;;;;17.92;9.57;;;;;;;;;;5057251;28;20024;-82
2023/07/24 17:19:40;;;;;;;18.33;8.77;;;;;;;;;;5064087;28;20052;-82
2023/07/24 17:22:06;;;;;;;22.27;10.02;;;;;;;;;;5084442;28;20035;-82
2023/07/24 17:24:32;;;;;;;21.48;8.93;;;;;;;;;;5095285;28;20108;-83
2023/07/24 17:26:58;;;;;;;21.98;10.98;;;;;;;;;;5076983;28;20035;-82
2023/07/24 17:29:24;;;;;;;21.20;9.77;;;;;;;;;;5063543;28;20032;-82
2023/07/24 17:31:50;;;;;;;20.63;9.73;;;;;;;;;;5076552;28;20406;-81